createdAt,value
2019-02-16T00:02:50.673Z,15.57
2019-02-16T00:05:55.902Z,14.80
2019-02-16T00:09:01.066Z,16.53
2019-02-16T00:12:07.894Z,17.47
2019-02-16T00:15:13.121Z,15.30
2019-02-16T00:18:18.341Z,15.63
2019-02-16T00:21:23.488Z,17.40
2019-02-16T00:24:28.704Z,15.37
2019-02-16T00:27:33.882Z,15.63
2019-02-16T00:30:39.078Z,16.70
2019-02-16T00:33:44.317Z,15.53
2019-02-16T00:36:49.545Z,13.97
2019-02-16T00:39:54.857Z,15.27
2019-02-16T00:43:00.050Z,13.10
2019-02-16T00:46:05.228Z,11.60
2019-02-16T00:49:10.458Z,12.13
2019-02-16T00:52:15.650Z,15.43
2019-02-16T00:55:20.837Z,14.77
2019-02-16T00:58:26.096Z,14.23
2019-02-16T01:01:31.291Z,12.43
2019-02-16T01:04:36.438Z,14.60
2019-02-16T01:07:41.573Z,14.03
2019-02-16T01:10:46.828Z,15.73
2019-02-16T01:13:52.104Z,14.03
2019-02-16T01:16:57.261Z,14.77
2019-02-16T01:20:02.474Z,15.23
2019-02-16T01:23:07.623Z,13.10
2019-02-16T01:26:12.934Z,14.37
2019-02-16T01:29:18.107Z,13.70
2019-02-16T01:32:23.400Z,13.63
2019-02-16T01:35:28.541Z,13.87
2019-02-16T01:38:34.782Z,14.63
2019-02-16T01:41:40.077Z,14.37
2019-02-16T01:44:45.239Z,14.33
2019-02-16T01:47:50.378Z,14.57
2019-02-16T01:50:55.584Z,14.97
2019-02-16T01:54:00.770Z,15.37
2019-02-16T01:57:05.917Z,14.53
2019-02-16T02:00:11.578Z,15.30
2019-02-16T02:03:16.692Z,11.23
2019-02-16T02:06:21.918Z,10.87
2019-02-16T02:09:27.092Z,12.50
2019-02-16T02:12:32.384Z,13.67
2019-02-16T02:15:37.578Z,11.90
2019-02-16T02:18:42.784Z,12.70
2019-02-16T02:21:48.145Z,14.87
2019-02-16T02:24:53.323Z,13.83
2019-02-16T02:27:58.541Z,13.17
2019-02-16T02:31:03.666Z,13.40
2019-02-16T02:34:08.834Z,13.87
2019-02-16T02:37:14.046Z,13.33
2019-02-16T02:40:19.293Z,13.27
2019-02-16T02:43:24.453Z,13.07
2019-02-16T02:46:29.595Z,13.40
2019-02-16T02:49:34.716Z,13.37
2019-02-16T02:52:39.823Z,13.03
2019-02-16T02:55:44.980Z,14.03
2019-02-16T02:58:50.183Z,13.27
2019-02-16T03:01:55.308Z,11.90
2019-02-16T03:05:00.498Z,10.70
2019-02-16T03:08:05.736Z,11.43
2019-02-16T03:11:10.927Z,10.90
2019-02-16T03:14:16.066Z,11.47
2019-02-16T03:17:21.224Z,10.90
2019-02-16T03:20:26.424Z,10.70
2019-02-16T03:23:32.086Z,11.77
2019-02-16T03:27:07.226Z,12.47
2019-02-16T03:30:49.571Z,11.63
2019-02-16T03:34:03.170Z,11.63
2019-02-16T03:37:50.547Z,13.17
2019-02-16T03:40:55.692Z,13.80
2019-02-16T03:44:00.869Z,12.23
2019-02-16T03:47:07.099Z,11.13
2019-02-16T03:50:12.346Z,11.17
2019-02-16T03:53:17.649Z,11.50
2019-02-16T03:56:22.791Z,13.00
2019-02-16T03:59:27.900Z,11.37
2019-02-16T04:02:33.063Z,11.03
2019-02-16T04:05:38.219Z,11.57
2019-02-16T04:08:43.366Z,11.30
2019-02-16T04:11:48.559Z,11.90
2019-02-16T04:14:53.736Z,13.40
2019-02-16T04:17:58.881Z,10.53
2019-02-16T04:21:04.076Z,11.30
2019-02-16T04:24:09.301Z,12.10
2019-02-16T04:27:14.464Z,11.30
2019-02-16T04:30:19.612Z,11.40
2019-02-16T04:33:24.725Z,11.07
2019-02-16T04:36:29.901Z,11.23
2019-02-16T04:39:35.052Z,11.80
2019-02-16T04:42:40.197Z,10.80
2019-02-16T04:45:45.388Z,11.40
2019-02-16T04:48:50.659Z,11.63
2019-02-16T04:51:55.819Z,9.77
2019-02-16T04:55:00.986Z,12.33
2019-02-16T04:58:06.107Z,10.20
2019-02-16T05:01:11.281Z,10.67
2019-02-16T05:04:16.649Z,13.27
2019-02-16T05:07:21.912Z,20.53
2019-02-16T05:10:27.046Z,15.57
2019-02-16T05:13:32.187Z,11.77
2019-02-16T05:16:37.333Z,10.50
2019-02-16T05:19:42.457Z,12.23
2019-02-16T05:22:47.673Z,13.10
2019-02-16T05:25:52.807Z,15.47
2019-02-16T05:28:57.996Z,15.50
2019-02-16T05:32:03.176Z,13.43
2019-02-16T05:35:08.354Z,11.93
2019-02-16T05:38:13.666Z,12.30
2019-02-16T05:41:18.808Z,12.37
2019-02-16T05:44:24.029Z,10.43
2019-02-16T05:47:29.173Z,11.63
2019-02-16T05:50:34.343Z,11.70
2019-02-16T05:53:39.491Z,11.67
2019-02-16T05:56:44.639Z,11.67
2019-02-16T05:59:49.825Z,11.47
2019-02-16T06:02:54.976Z,11.07
2019-02-16T06:06:00.168Z,11.30
2019-02-16T06:09:06.451Z,12.47
2019-02-16T06:12:11.619Z,11.83
2019-02-16T06:15:16.791Z,9.87
2019-02-16T06:18:21.982Z,10.00
2019-02-16T06:21:28.206Z,10.53
2019-02-16T06:24:33.411Z,10.17
2019-02-16T06:27:38.611Z,10.30
2019-02-16T06:30:43.846Z,12.67
2019-02-16T06:33:48.943Z,14.23
2019-02-16T06:36:54.091Z,12.13
2019-02-16T06:39:59.283Z,10.63
2019-02-16T06:43:04.462Z,11.03
2019-02-16T06:46:09.637Z,13.07
2019-02-16T06:49:14.772Z,11.57
2019-02-16T06:52:19.978Z,11.60
2019-02-16T06:55:28.605Z,14.33
2019-02-16T06:58:33.777Z,18.30
2019-02-16T07:01:38.948Z,19.13
2019-02-16T07:04:44.099Z,17.20
2019-02-16T07:07:49.254Z,16.60
2019-02-16T07:10:54.435Z,18.03
2019-02-16T07:13:59.618Z,17.80
2019-02-16T07:17:30.201Z,16.13
2019-02-16T07:20:36.418Z,12.33
2019-02-16T07:23:41.607Z,12.60
2019-02-16T07:26:46.754Z,12.43
2019-02-16T07:29:51.933Z,14.80
2019-02-16T07:32:57.091Z,14.13
2019-02-16T07:36:02.236Z,13.70
2019-02-16T07:39:07.867Z,12.17
2019-02-16T07:42:13.037Z,12.70
2019-02-16T07:45:29.865Z,12.23
2019-02-16T07:48:53.991Z,12.73
2019-02-16T07:52:20.874Z,12.97
2019-02-16T07:55:36.164Z,12.47
2019-02-16T07:58:48.024Z,13.90
2019-02-16T08:02:12.102Z,23.57
2019-02-16T08:05:34.421Z,17.83
2019-02-16T08:09:07.715Z,17.37
2019-02-16T08:12:31.809Z,16.37
2019-02-16T08:15:51.534Z,17.07
2019-02-16T08:19:23.044Z,16.50
2019-02-16T08:22:41.406Z,15.23
2019-02-16T08:26:04.502Z,15.10
2019-02-16T08:29:22.660Z,15.20
2019-02-16T08:32:58.831Z,14.70
2019-02-16T08:36:10.388Z,14.63
2019-02-16T08:39:34.456Z,13.67
2019-02-16T08:43:01.406Z,12.40
2019-02-16T08:46:34.915Z,12.10
2019-02-16T08:50:05.165Z,12.20
2019-02-16T08:53:16.550Z,11.63
2019-02-16T08:56:39.376Z,11.37
2019-02-16T09:00:12.615Z,11.73
2019-02-16T09:03:36.023Z,11.00
2019-02-16T09:06:57.594Z,11.77
2019-02-16T09:10:30.969Z,11.63
2019-02-16T09:13:48.846Z,14.90
2019-02-16T09:17:13.537Z,11.50
2019-02-16T09:20:40.836Z,11.67
2019-02-16T09:24:03.805Z,11.50
2019-02-16T09:27:34.139Z,11.50
2019-02-16T09:30:56.536Z,10.77
2019-02-16T09:34:12.053Z,11.63
2019-02-16T09:37:39.190Z,11.53
2019-02-16T09:41:02.090Z,11.73
2019-02-16T09:44:18.113Z,11.47
2019-02-16T09:47:40.963Z,12.43
2019-02-16T09:51:17.108Z,12.27
2019-02-16T09:54:53.396Z,12.90
2019-02-16T09:58:16.229Z,13.00
2019-02-16T10:01:52.781Z,13.70
2019-02-16T10:05:09.891Z,13.30
2019-02-16T10:08:39.951Z,12.90
2019-02-16T10:11:51.244Z,12.30
2019-02-16T10:15:14.192Z,12.50
2019-02-16T10:18:30.763Z,15.33
2019-02-16T10:21:55.157Z,13.63
2019-02-16T10:25:28.512Z,16.50
2019-02-16T10:28:55.449Z,19.87
2019-02-16T10:32:22.311Z,14.50
2019-02-16T10:35:55.833Z,11.97
2019-02-16T10:39:25.259Z,13.07
2019-02-16T10:42:39.682Z,12.97
2019-02-16T10:46:03.699Z,12.27
2019-02-16T10:49:30.936Z,18.87
2019-02-16T10:52:54.276Z,13.93
2019-02-16T10:56:18.375Z,10.93
2019-02-16T10:59:42.316Z,11.70
2019-02-16T11:03:09.554Z,12.83
2019-02-16T11:06:35.303Z,12.23
2019-02-16T11:09:45.638Z,10.80
2019-02-16T11:12:59.264Z,11.83
2019-02-16T11:16:38.588Z,30.07
2019-02-16T11:20:05.643Z,11.20
2019-02-16T11:23:20.776Z,11.33
2019-02-16T11:26:47.859Z,11.50
2019-02-16T11:30:12.060Z,10.97
2019-02-16T11:33:24.456Z,12.73
2019-02-16T11:37:02.547Z,12.10
2019-02-16T11:40:27.008Z,11.97
2019-02-16T11:43:44.695Z,13.00
2019-02-16T11:47:15.164Z,12.80
2019-02-16T11:50:45.375Z,12.50
2019-02-16T11:54:04.531Z,12.27
2019-02-16T11:57:27.681Z,11.43
2019-02-16T12:00:40.272Z,11.30
2019-02-16T12:04:07.600Z,12.37
2019-02-16T12:07:37.733Z,12.33
2019-02-16T12:11:01.261Z,12.77
2019-02-16T12:14:37.719Z,12.00
2019-02-16T12:18:20.338Z,11.17
2019-02-16T12:22:02.691Z,11.97
2019-02-16T12:25:29.763Z,13.60
2019-02-16T12:28:46.619Z,12.70
2019-02-16T12:32:10.763Z,11.53
2019-02-16T12:35:30.811Z,12.00
2019-02-16T12:39:02.965Z,12.00
2019-02-16T12:42:32.769Z,12.57
2019-02-16T12:45:56.884Z,13.20
2019-02-16T12:49:20.055Z,12.00
2019-02-16T12:52:59.623Z,11.93
2019-02-16T12:56:32.765Z,11.53
2019-02-16T13:00:09.053Z,11.80
2019-02-16T13:03:21.257Z,10.73
2019-02-16T13:06:48.451Z,12.00
2019-02-16T13:10:11.486Z,12.10
2019-02-16T13:13:35.645Z,11.90
2019-02-16T13:17:02.674Z,11.30
2019-02-16T13:20:31.853Z,11.50
2019-02-16T13:24:11.048Z,12.03
2019-02-16T13:27:50.401Z,11.93
2019-02-16T13:31:32.908Z,12.97
2019-02-16T13:34:59.820Z,12.57
2019-02-16T13:38:22.559Z,11.93
2019-02-16T13:41:52.535Z,12.80
2019-02-16T13:45:19.377Z,12.50
2019-02-16T13:48:43.541Z,14.03
2019-02-16T13:51:58.383Z,12.93
2019-02-16T13:55:36.194Z,12.93
2019-02-16T13:59:04.540Z,12.83
2019-02-16T14:02:29.799Z,14.20
2019-02-16T14:05:51.973Z,13.77
2019-02-16T14:09:11.986Z,14.90
2019-02-16T14:12:24.699Z,16.33
2019-02-16T14:15:49.202Z,16.93
2019-02-16T14:18:54.401Z,15.00
2019-02-16T14:21:59.584Z,15.73
2019-02-16T14:25:06.887Z,15.50
2019-02-16T14:28:12.106Z,16.20
2019-02-16T14:31:18.694Z,13.57
2019-02-16T14:34:23.856Z,13.90
2019-02-16T14:37:38.412Z,15.13
2019-02-16T14:40:43.596Z,13.80
2019-02-16T14:43:48.709Z,14.20
2019-02-16T14:46:53.957Z,13.77
2019-02-16T14:49:59.056Z,12.47
2019-02-16T14:53:04.195Z,12.00
2019-02-16T14:56:09.482Z,12.10
2019-02-16T14:59:14.647Z,12.07
2019-02-16T15:02:19.777Z,11.07
2019-02-16T15:05:24.922Z,10.87
2019-02-16T15:08:30.077Z,11.03
2019-02-16T15:11:35.339Z,12.10
2019-02-16T15:14:40.504Z,11.77
2019-02-16T15:17:45.659Z,12.07
2019-02-16T15:20:50.807Z,10.23
2019-02-16T15:23:55.938Z,11.90
2019-02-16T15:27:01.029Z,11.77
2019-02-16T15:30:09.154Z,12.63
2019-02-16T15:33:14.358Z,12.03
2019-02-16T15:36:24.001Z,11.33
2019-02-16T15:39:26.346Z,11.03
2019-02-16T15:42:31.460Z,10.77
2019-02-16T15:45:36.563Z,11.37
2019-02-16T15:48:41.726Z,11.83
2019-02-16T15:51:46.929Z,10.70
2019-02-16T15:54:52.262Z,10.67
2019-02-16T15:57:57.358Z,13.63
2019-02-16T16:01:02.971Z,10.30
2019-02-16T16:04:08.165Z,11.13
2019-02-16T16:07:16.561Z,11.93
2019-02-16T16:10:31.739Z,10.77
2019-02-16T16:13:48.078Z,13.90
2019-02-16T16:17:18.195Z,10.87
2019-02-16T16:20:37.821Z,10.60
2019-02-16T16:24:04.779Z,12.63
2019-02-16T16:27:32.092Z,11.87
2019-02-16T16:30:49.624Z,12.20
2019-02-16T16:34:05.003Z,12.47
2019-02-16T16:37:29.278Z,12.07
2019-02-16T16:41:02.662Z,13.83
2019-02-16T16:44:35.883Z,11.70
2019-02-16T16:47:55.750Z,12.00
2019-02-16T16:51:13.641Z,13.00
2019-02-16T16:54:47.125Z,13.40
2019-02-16T16:58:07.043Z,13.67
2019-02-16T17:01:31.107Z,13.77
2019-02-16T17:04:55.521Z,13.27
2019-02-16T17:08:15.484Z,14.13
2019-02-16T17:11:42.453Z,13.27
2019-02-16T17:15:05.397Z,15.23
2019-02-16T17:18:47.707Z,15.97
2019-02-16T17:22:17.656Z,17.70
2019-02-16T17:25:40.289Z,16.00
2019-02-16T17:29:19.751Z,17.83
2019-02-16T17:32:46.726Z,16.33
2019-02-16T17:35:57.674Z,41.73
2019-02-16T17:39:11.477Z,50.80
2019-02-16T17:42:34.747Z,35.70
2019-02-16T17:46:05.216Z,33.90
2019-02-16T17:49:38.255Z,36.40
2019-02-16T17:53:01.377Z,35.00
2019-02-16T17:56:46.593Z,33.27
2019-02-16T17:59:51.609Z,21.23
2019-02-16T18:03:18.730Z,27.33
2019-02-16T18:06:51.802Z,25.40
2019-02-16T18:10:21.743Z,23.77
2019-02-16T18:13:58.014Z,22.90
2019-02-16T18:17:23.795Z,23.60
2019-02-16T18:20:53.858Z,25.47
2019-02-16T18:24:09.224Z,33.57
2019-02-16T18:27:45.449Z,34.17
2019-02-16T18:31:18.535Z,44.37
2019-02-16T18:34:50.766Z,44.33
2019-02-16T18:38:26.930Z,38.83
2019-02-16T18:41:56.963Z,28.43
2019-02-16T18:45:08.979Z,29.27
2019-02-16T18:48:21.519Z,25.37
2019-02-16T18:51:55.715Z,28.27
2019-02-16T18:55:11.890Z,23.03
2019-02-16T18:58:30.345Z,26.43
2019-02-16T19:01:50.190Z,24.33
2019-02-16T19:05:13.007Z,25.87
2019-02-16T19:08:26.473Z,23.63
2019-02-16T19:11:49.211Z,23.43
2019-02-16T19:15:00.885Z,24.53
2019-02-16T19:18:28.454Z,25.23
2019-02-16T19:21:42.444Z,23.50
2019-02-16T19:24:59.943Z,23.43
2019-02-16T19:28:20.613Z,24.50
2019-02-16T19:31:40.920Z,21.90
2019-02-16T19:35:05.103Z,25.03
2019-02-16T19:38:41.609Z,25.47
2019-02-16T19:41:59.775Z,24.43
2019-02-16T19:45:21.068Z,22.77
2019-02-16T19:48:44.908Z,23.00
2019-02-16T19:52:15.287Z,26.07
2019-02-16T19:55:42.688Z,26.07
2019-02-16T19:59:01.460Z,25.73
2019-02-16T20:02:31.731Z,25.97
2019-02-16T20:05:56.173Z,26.60
2019-02-16T20:09:14.733Z,28.47
2019-02-16T20:12:35.315Z,23.93
2019-02-16T20:15:51.808Z,25.23
2019-02-16T20:19:18.928Z,24.83
2019-02-16T20:23:01.392Z,22.77
2019-02-16T20:26:24.074Z,25.13
2019-02-16T20:29:44.456Z,28.57
2019-02-16T20:33:04.665Z,25.80
2019-02-16T20:36:27.275Z,30.33
2019-02-16T20:39:42.342Z,31.90
2019-02-16T20:42:58.582Z,22.87
2019-02-16T20:46:10.153Z,32.57
2019-02-16T20:49:27.773Z,29.57
2019-02-16T20:52:50.808Z,26.23
2019-02-16T20:56:21.037Z,26.00
2019-02-16T20:59:43.883Z,26.00
2019-02-16T21:03:10.942Z,30.20
2019-02-16T21:06:40.691Z,34.50
2019-02-16T21:10:11.012Z,32.37
2019-02-16T21:13:35.156Z,33.37
2019-02-16T21:16:59.362Z,29.00
2019-02-16T21:20:26.494Z,26.63
2019-02-16T21:24:00.054Z,25.97
2019-02-16T21:27:24.467Z,24.90
2019-02-16T21:30:36.168Z,28.47
2019-02-16T21:34:12.518Z,30.30
2019-02-16T21:37:24.647Z,29.03
2019-02-16T21:40:51.923Z,30.37
2019-02-16T21:44:06.663Z,30.60
2019-02-16T21:47:24.706Z,31.13
2019-02-16T21:51:04.022Z,31.53
2019-02-16T21:54:32.533Z,31.73
2019-02-16T21:57:45.891Z,30.80
2019-02-16T22:01:16.049Z,29.80
2019-02-16T22:04:26.167Z,25.83
2019-02-16T22:07:43.171Z,24.53
2019-02-16T22:11:25.448Z,26.40
2019-02-16T22:14:30.576Z,25.47
2019-02-16T22:17:35.784Z,22.97
2019-02-16T22:20:40.962Z,21.37
2019-02-16T22:23:46.131Z,21.80
2019-02-16T22:26:51.335Z,21.40
2019-02-16T22:29:56.492Z,21.47
2019-02-16T22:33:01.670Z,22.80
2019-02-16T22:36:06.958Z,22.33
2019-02-16T22:39:12.103Z,20.67
2019-02-16T22:42:17.398Z,24.53
2019-02-16T22:45:22.535Z,24.23
2019-02-16T22:48:27.795Z,22.57
2019-02-16T22:51:32.958Z,25.60
2019-02-16T22:54:38.121Z,24.67
2019-02-16T22:57:43.328Z,25.90
2019-02-16T23:00:49.559Z,24.33
2019-02-16T23:03:55.722Z,22.03
2019-02-16T23:07:00.916Z,24.53
2019-02-16T23:10:07.335Z,22.73
2019-02-16T23:13:13.239Z,22.40
2019-02-16T23:16:18.431Z,22.77
2019-02-16T23:19:23.898Z,23.00
2019-02-16T23:22:29.084Z,27.67
2019-02-16T23:25:34.220Z,33.80
2019-02-16T23:28:39.465Z,31.60
2019-02-16T23:31:44.661Z,33.40
2019-02-16T23:34:49.839Z,28.80
2019-02-16T23:37:55.019Z,26.40
2019-02-16T23:41:00.188Z,27.73
2019-02-16T23:44:05.448Z,25.63
2019-02-16T23:47:10.546Z,26.60
2019-02-16T23:50:15.999Z,25.03
2019-02-16T23:53:21.235Z,25.53
2019-02-16T23:56:26.424Z,26.53
2019-02-16T23:59:31.888Z,25.83
